Saint Helens, OR (97051)

6:41 AM PDT on September 18, 2014 (GMT -0700)
Arbor Hill, Sykes Rd. | Change Station
CLOSE
Current Station
Personal Weather Station
Location: St. Helens, OR
Elevation: 200 ft
Nearby Weather Stations
4.0 Earthquake: Seabeck, Washington (1 day ago)  

Elev 200 ft 45.85 °N, 122.85 °W | Updated 1 minute ago

Overcast
Overcast
61.6 °F
Feels Like 61.6 °F
N
2.0
Wind Variable Wind from NW
Gusts 2.0 mph

Today
High -- | Low -- °F
--% Chance of Precip.
Yesterday
High -- | Low -- °F
Precip. -- in
6:53 AM 7:16 PM
Waning Crescent, 27% visible
Pressure 29.75 in
Visibility 9.0 miles
Clouds Few 3500 ft
Overcast 4800 ft
Dew Point 57 °F
Humidity 86%
Rainfall 0.00 in
Snow Depth 0 in , 1 in , 0 in
UV 0 out of 12
Pollen 1.20 out of 12
Air Quality Not available.
Flu Activity Not available.
METAR KSPB 181253Z AUTO 36003KT 9SM -RA FEW035 OVC048 17/14 A2974 RMK AO2 RAB29 SLP072 P0000 T01670144

More Conditions Fewer Conditions

Pressure 29.75 in
Visibility 9.0 miles
Clouds Few 3500 ft
Overcast 4800 ft
Dew Point 57 °F
Humidity 86%
Rainfall 0.00 in
Snow Depth 0 in , 1 in , 0 in
UV 0 out of 12
Pollen 1.20 out of 12
Air Quality Not available.
Flu Activity Not available.
METAR KSPB 181253Z AUTO 36003KT 9SM -RA FEW035 OVC048 17/14 A2974 RMK AO2 RAB29 SLP072 P0000 T01670144

More Conditions Fewer Conditions

10-Day Weather Forecast

Almanac

Astronomy

Sep. 18, 2014 Rise Set
Actual Time 6:53 AM PDT 7:16 PM PDT
Civil Twilight 6:23 AM PDT 7:46 PM PDT
Nautical Twilight 5:48 AM PDT 8:21 PM PDT
Astronomical Twilight 5:11 AM PDT 8:57 PM PDT
Moon 1:38 AM PDT 4:22 PM PDT
Length of Visible Light 13h 22m
Length of Day
12h 23m
Tomorrow will be 3m 13s shorter.
Waning Crescent, 27% of the Moon is Illuminated
Today
Waning Crescent
Sep 24
New
Oct 1
First Quarter
Oct 8
Full
Oct 15
Last Quarter

Today's Extremes

State Highs State Lows

Community

WunderPhotos

Upload Photos

1,754,347 photos uploaded!

Nearby

Snow Depth

Station Depth Elevation
Strawberry 0 in 5760 ft
Mt. Howard 1 in 7910 ft
Peavine Ridge 0 in 3500 ft
Three Creeks Meadow 0 in 5650 ft
Holland Meadows 1 in 4900 ft

Earthquake Activity

City Distance Mag. Time & Date
Seabeck, Washington 116 miles 4.0 3:06 AM PDT
2014-09-17
Morton, Washington 39 miles 3.0 5:43 AM PDT
2014-09-16
Minimum magnitude displayed is 2.5.

Coastal Water Temperatures

Place Temperature
Astoria, OR 64.0 °F
Westport, WA 57.9 °F

Nearby Weather Stations